Time;durP1;ratioP1;P1;durP2;ratioP2;P2;SDS_P1;SDS_P2;PMS_P1;PMS_P2;Temp;Humidity;BMP_temperature;BMP_pressure;BME280_temperature;BME280_humidity;BME280_pressure;Samples;Min_cycle;Max_cycle;Signal;HPM_P1;HPM_P2
2022/07/22 00:01:10;;;;;;;8.68;2.00;;;17.80;99.90;;;;;;5031976;28;20196;-81
2022/07/22 00:03:36;;;;;;;11.75;2.67;;;18.00;99.90;;;;;;5014562;28;20167;-82
2022/07/22 00:06:01;;;;;;;8.48;2.88;;;17.80;99.90;;;;;;5032379;28;20554;-81
2022/07/22 00:08:27;;;;;;;7.18;2.58;;;17.70;99.90;;;;;;5032383;28;20199;-81
2022/07/22 00:10:53;;;;;;;7.13;2.42;;;17.60;99.90;;;;;;5014858;28;20196;-80
2022/07/22 00:13:18;;;;;;;12.15;2.83;;;17.60;99.90;;;;;;5041932;28;20168;-80
2022/07/22 00:15:44;;;;;;;8.93;1.92;;;17.50;99.90;;;;;;5051037;28;20208;-82
2022/07/22 00:18:10;;;;;;;14.75;2.70;;;17.50;99.90;;;;;;5032131;28;20174;-80
2022/07/22 00:20:35;;;;;;;8.13;2.40;;;17.60;99.90;;;;;;5031949;28;20542;-80
2022/07/22 00:23:01;;;;;;;7.45;2.25;;;17.60;99.90;;;;;;5031959;28;20191;-82
2022/07/22 00:25:28;;;;;;;15.73;3.30;;;17.60;99.90;;;;;;5033770;28;20206;-81
2022/07/22 00:27:54;;;;;;;7.57;2.50;;;17.60;99.90;;;;;;5035563;28;20199;-81
2022/07/22 00:30:20;;;;;;;14.18;3.13;;;17.70;99.90;;;;;;5035522;28;20211;-82
2022/07/22 00:32:45;;;;;;;13.25;3.38;;;17.80;99.90;;;;;;5018078;28;20191;-81
2022/07/22 00:35:11;;;;;;;12.60;2.85;;;17.90;99.90;;;;;;5035611;28;20262;-82
2022/07/22 00:37:37;;;;;;;6.93;2.47;;;17.90;99.90;;;;;;5035527;28;20251;-80
2022/07/22 00:40:03;;;;;;;21.15;2.55;;;18.00;99.90;;;;;;5035618;28;20195;-83
2022/07/22 00:42:29;;;;;;;6.50;2.95;;;17.80;99.90;;;;;;5017650;28;20589;-82
2022/07/22 00:44:55;;;;;;;12.10;2.85;;;17.70;99.90;;;;;;5035447;28;20246;-82
2022/07/22 00:47:20;;;;;;;8.73;2.55;;;17.40;99.90;;;;;;5017512;28;20172;-82
2022/07/22 00:49:46;;;;;;;17.00;2.90;;;17.50;99.90;;;;;;5035321;28;20267;-82
2022/07/22 00:52:12;;;;;;;7.50;2.20;;;17.50;99.90;;;;;;5035328;28;20164;-82
2022/07/22 00:54:38;;;;;;;6.63;2.35;;;17.40;99.90;;;;;;5035608;28;20200;-82
2022/07/22 00:57:04;;;;;;;8.48;2.30;;;17.40;99.90;;;;;;5017709;28;20625;-81
2022/07/22 00:59:30;;;;;;;9.68;2.42;;;17.40;99.90;;;;;;5035508;28;20193;-82
2022/07/22 01:01:56;;;;;;;11.55;2.92;;;17.40;99.90;;;;;;5035297;28;20240;-83
2022/07/22 01:04:21;;;;;;;5.18;2.25;;;17.50;99.90;;;;;;5017315;28;20333;-81
2022/07/22 01:06:47;;;;;;;14.40;2.55;;;17.60;99.90;;;;;;5016957;28;20302;-82
2022/07/22 01:09:13;;;;;;;9.48;3.25;;;17.50;99.90;;;;;;5034881;28;20172;-81
2022/07/22 01:11:40;;;;;;;7.43;3.08;;;17.70;99.90;;;;;;5034800;28;20203;-82
2022/07/22 01:14:06;;;;;;;7.38;2.95;;;17.60;99.90;;;;;;5016865;28;20310;-81
2022/07/22 01:16:31;;;;;;;24.75;2.80;;;17.60;99.90;;;;;;5034654;28;20263;-82
2022/07/22 01:18:57;;;;;;;11.27;3.25;;;17.60;99.90;;;;;;5016900;28;20172;-81
2022/07/22 01:21:23;;;;;;;11.32;2.83;;;17.70;99.90;;;;;;5034546;28;20194;-82
2022/07/22 01:23:48;;;;;;;8.38;2.90;;;17.50;99.90;;;;;;5016778;28;20183;-82
2022/07/22 01:26:15;;;;;;;13.48;2.63;;;17.60;99.90;;;;;;5016646;28;20175;-81
2022/07/22 01:28:41;;;;;;;19.02;2.88;;;17.60;99.90;;;;;;5016921;28;20179;-81
2022/07/22 01:31:07;;;;;;;15.23;3.58;;;17.60;99.90;;;;;;5034369;28;20239;-81
2022/07/22 01:33:34;;;;;;;12.02;2.75;;;17.50;99.90;;;;;;5034389;28;20686;-82
2022/07/22 01:35:59;;;;;;;10.02;3.03;;;17.40;99.90;;;;;;5034429;28;20207;-81
2022/07/22 01:38:25;;;;;;;11.05;2.55;;;17.20;99.90;;;;;;5033997;28;20214;-80
2022/07/22 01:40:51;;;;;;;5.60;2.08;;;17.10;99.90;;;;;;5016531;28;20282;-81
2022/07/22 01:43:20;;;;;;;7.07;2.90;;;17.00;99.90;;;;;;5034261;28;20168;-82
2022/07/22 01:45:48;;;;;;;5.90;2.63;;;16.80;99.90;;;;;;5034171;28;20174;-82
2022/07/22 01:48:14;;;;;;;8.35;2.88;;;16.70;99.90;;;;;;5034458;28;20160;-82
2022/07/22 01:50:41;;;;;;;8.75;2.90;;;16.90;99.90;;;;;;5034021;28;20188;-81
2022/07/22 01:53:07;;;;;;;11.80;3.28;;;17.10;99.90;;;;;;5034188;28;20163;-83
2022/07/22 01:55:33;;;;;;;6.50;2.10;;;17.10;99.90;;;;;;5016380;28;20207;-80
2022/07/22 01:57:58;;;;;;;11.30;2.92;;;17.10;99.90;;;;;;5016443;28;20225;-82
2022/07/22 02:00:24;;;;;;;9.45;3.03;;;17.10;99.90;;;;;;5033936;28;20235;-81
2022/07/22 02:02:50;;;;;;;12.95;3.38;;;17.10;99.90;;;;;;5033912;28;20621;-82
2022/07/22 02:05:16;;;;;;;12.77;3.40;;;17.00;99.90;;;;;;5033800;28;20183;-81
2022/07/22 02:07:41;;;;;;;4.68;2.60;;;17.00;99.90;;;;;;5016072;28;20203;-82
2022/07/22 02:10:08;;;;;;;11.90;2.80;;;17.10;99.90;;;;;;5015851;28;20195;-82
2022/07/22 02:12:34;;;;;;;11.07;2.92;;;17.00;99.90;;;;;;5033879;28;20548;-81
2022/07/22 02:14:59;;;;;;;5.75;2.15;;;17.00;99.90;;;;;;5033755;28;20208;-80
2022/07/22 02:17:26;;;;;;;12.98;3.28;;;17.00;99.90;;;;;;5015651;28;20199;-81
2022/07/22 02:19:51;;;;;;;16.38;2.83;;;17.10;99.90;;;;;;5033341;28;20230;-81
2022/07/22 02:22:17;;;;;;;10.35;2.95;;;17.00;99.90;;;;;;5033416;28;20248;-81
2022/07/22 02:24:43;;;;;;;9.48;2.70;;;17.00;99.90;;;;;;5033379;28;20183;-82
2022/07/22 02:27:08;;;;;;;5.90;2.38;;;16.90;99.90;;;;;;5033341;28;20182;-81
2022/07/22 02:29:34;;;;;;;15.88;3.03;;;16.90;99.90;;;;;;5034639;28;20198;-81
2022/07/22 02:32:00;;;;;;;11.35;2.80;;;16.80;99.90;;;;;;5035828;28;20259;-80
2022/07/22 02:34:26;;;;;;;12.57;3.05;;;16.90;99.90;;;;;;5042988;28;20207;-81
2022/07/22 02:36:52;;;;;;;5.82;2.70;;;16.90;99.90;;;;;;5015525;28;20521;-81
2022/07/22 02:39:17;;;;;;;13.98;3.10;;;16.70;99.90;;;;;;5033367;28;20704;-82
2022/07/22 02:41:43;;;;;;;10.20;3.45;;;16.70;99.90;;;;;;5015291;28;20199;-82
2022/07/22 02:44:09;;;;;;;4.40;2.90;;;16.80;99.90;;;;;;5033267;28;20168;-81
2022/07/22 02:46:35;;;;;;;11.95;3.17;;;16.80;99.90;;;;;;5033366;28;20168;-80
2022/07/22 02:49:02;;;;;;;18.42;2.75;;;17.00;99.90;;;;;;5032595;28;20214;-82
2022/07/22 02:51:27;;;;;;;11.10;2.88;;;17.00;99.90;;;;;;5033218;28;20184;-81
2022/07/22 02:53:53;;;;;;;7.28;3.10;;;17.00;99.90;;;;;;5033146;28;20168;-81
2022/07/22 02:56:19;;;;;;;13.10;3.35;;;17.00;99.90;;;;;;5033284;28;20166;-81
2022/07/22 02:58:46;;;;;;;9.52;3.42;;;17.00;99.90;;;;;;5036125;28;20175;-80
2022/07/22 03:01:12;;;;;;;18.88;3.05;;;17.00;99.90;;;;;;5018752;28;20194;-81
2022/07/22 03:03:38;;;;;;;6.55;2.85;;;17.10;99.90;;;;;;5040828;28;20179;-82
2022/07/22 03:06:04;;;;;;;4.38;2.40;;;17.00;99.90;;;;;;5019892;28;20214;-83
2022/07/22 03:08:30;;;;;;;9.27;2.85;;;16.90;99.90;;;;;;5037367;28;20168;-82
2022/07/22 03:10:56;;;;;;;4.10;2.58;;;16.90;99.90;;;;;;5036409;28;20196;-82
2022/07/22 03:13:21;;;;;;;4.50;2.35;;;16.80;99.90;;;;;;5015938;28;20214;-83
2022/07/22 03:15:47;;;;;;;8.23;2.65;;;16.70;99.90;;;;;;5034781;28;20212;-82
2022/07/22 03:18:13;;;;;;;10.18;3.42;;;16.80;99.90;;;;;;5015772;28;20172;-82
2022/07/22 03:20:38;;;;;;;14.18;3.05;;;16.70;99.90;;;;;;5015851;28;20191;-82
2022/07/22 03:23:04;;;;;;;5.38;3.05;;;16.80;99.90;;;;;;5033658;28;20180;-82
2022/07/22 03:25:32;;;;;;;5.35;2.45;;;16.70;99.90;;;;;;5015874;28;20178;-82
2022/07/22 03:27:58;;;;;;;7.68;3.22;;;16.70;99.90;;;;;;5015523;28;20177;-82
2022/07/22 03:30:25;;;;;;;11.73;3.33;;;17.00;99.90;;;;;;5016065;28;20676;-83
2022/07/22 03:32:51;;;;;;;16.83;2.83;;;16.90;99.90;;;;;;5033195;28;20222;-81
2022/07/22 03:35:16;;;;;;;14.75;3.13;;;17.00;99.90;;;;;;5019526;28;20211;-83
2022/07/22 03:37:43;;;;;;;9.88;2.90;;;17.30;99.90;;;;;;5036613;28;20233;-82
2022/07/22 03:40:10;;;;;;;11.25;2.78;;;17.40;99.90;;;;;;5016168;28;20203;-82
2022/07/22 03:42:35;;;;;;;10.00;3.00;;;17.30;99.90;;;;;;5016938;28;20250;-81
2022/07/22 03:45:01;;;;;;;13.27;3.58;;;17.10;99.90;;;;;;5016984;28;20661;-81
2022/07/22 03:47:27;;;;;;;10.02;3.25;;;17.10;99.90;;;;;;5034889;28;20239;-84
2022/07/22 03:49:53;;;;;;;8.23;3.15;;;17.00;99.90;;;;;;5034049;28;20191;-83
2022/07/22 03:52:18;;;;;;;6.32;2.80;;;16.90;99.90;;;;;;5034094;28;20164;-82
2022/07/22 03:54:44;;;;;;;6.30;2.65;;;17.00;99.90;;;;;;5016639;28;20746;-83
2022/07/22 03:57:10;;;;;;;14.80;2.13;;;16.90;99.90;;;;;;5017700;28;20175;-82
2022/07/22 03:59:36;;;;;;;10.18;2.97;;;16.80;99.90;;;;;;5017891;28;20224;-82
2022/07/22 04:02:03;;;;;;;6.05;2.92;;;16.80;99.90;;;;;;5021811;28;20195;-83
2022/07/22 04:04:29;;;;;;;12.63;3.00;;;16.90;99.90;;;;;;5039901;28;20218;-83
2022/07/22 04:06:55;;;;;;;10.05;2.88;;;16.90;99.90;;;;;;5039684;28;20168;-82
2022/07/22 04:09:21;;;;;;;9.63;2.45;;;17.00;99.90;;;;;;5038511;28;20172;-82
2022/07/22 04:11:46;;;;;;;13.90;2.88;;;17.20;99.90;;;;;;5038453;28;20163;-83
2022/07/22 04:14:12;;;;;;;6.18;3.15;;;17.10;99.90;;;;;;5020894;28;20172;-84
2022/07/22 04:16:38;;;;;;;7.88;3.05;;;17.10;99.90;;;;;;5039091;28;20176;-83
2022/07/22 04:19:04;;;;;;;11.65;3.47;;;17.20;99.90;;;;;;5019970;28;20196;-83
2022/07/22 04:21:30;;;;;;;14.15;3.00;;;17.20;99.90;;;;;;5040030;28;20282;-82
2022/07/22 04:23:56;;;;;;;10.38;3.28;;;17.10;99.90;;;;;;5021376;28;20226;-83
2022/07/22 04:26:21;;;;;;;5.60;2.83;;;17.10;99.90;;;;;;5037065;28;20523;-83
2022/07/22 04:28:47;;;;;;;8.85;3.42;;;17.20;99.90;;;;;;5037328;28;20176;-83
2022/07/22 04:31:12;;;;;;;10.05;3.17;;;17.10;99.90;;;;;;5036924;28;20198;-82
2022/07/22 04:33:38;;;;;;;8.25;2.63;;;17.10;99.90;;;;;;5036923;28;20247;-83
2022/07/22 04:36:04;;;;;;;11.65;2.92;;;17.30;99.90;;;;;;5019999;28;20215;-83
2022/07/22 04:38:30;;;;;;;7.35;3.25;;;17.40;99.90;;;;;;5038550;28;20557;-82
2022/07/22 04:40:56;;;;;;;4.70;2.53;;;17.50;99.90;;;;;;5036673;28;20184;-82
2022/07/22 04:43:21;;;;;;;7.38;3.70;;;17.60;99.90;;;;;;5036338;28;20252;-82
2022/07/22 04:45:47;;;;;;;7.07;2.38;;;17.60;99.90;;;;;;5036441;28;20167;-83
2022/07/22 04:48:13;;;;;;;15.43;2.92;;;17.70;99.90;;;;;;5036888;28;20179;-82
2022/07/22 04:50:39;;;;;;;12.02;3.22;;;17.70;99.90;;;;;;5037349;28;20271;-79
2022/07/22 04:53:05;;;;;;;11.27;3.08;;;17.70;99.90;;;;;;5021015;28;20199;-81
2022/07/22 04:55:30;;;;;;;11.88;2.83;;;17.50;99.90;;;;;;5047276;28;20230;-81
2022/07/22 04:57:56;;;;;;;8.23;2.85;;;17.40;99.90;;;;;;5055246;28;20235;-82
2022/07/22 05:00:23;;;;;;;13.23;3.38;;;17.50;99.90;;;;;;5019787;28;20184;-82
2022/07/22 05:02:49;;;;;;;14.80;2.75;;;17.50;99.90;;;;;;5037403;28;20164;-84
2022/07/22 05:05:15;;;;;;;10.18;2.53;;;17.60;99.90;;;;;;5037134;28;20191;-83
2022/07/22 05:07:41;;;;;;;5.22;2.17;;;17.80;99.90;;;;;;5035058;28;20448;-81
2022/07/22 05:10:06;;;;;;;8.90;2.60;;;18.10;99.90;;;;;;5035431;28;20198;-82
2022/07/22 05:12:32;;;;;;;10.55;2.88;;;18.30;99.90;;;;;;5040317;28;20175;-82
2022/07/22 05:14:58;;;;;;;9.32;2.95;;;18.40;99.90;;;;;;5022604;28;20195;-81
2022/07/22 05:17:24;;;;;;;10.20;3.30;;;18.20;99.90;;;;;;5041880;28;20172;-82
2022/07/22 05:19:49;;;;;;;7.78;3.22;;;17.90;99.90;;;;;;5036990;28;20184;-83
2022/07/22 05:22:15;;;;;;;9.50;2.97;;;18.10;99.90;;;;;;5017948;28;20671;-82
2022/07/22 05:24:41;;;;;;;11.80;3.63;;;18.10;99.90;;;;;;5034570;28;20187;-81
2022/07/22 05:27:06;;;;;;;5.50;2.50;;;18.30;99.90;;;;;;5019642;28;20186;-80
2022/07/22 05:29:32;;;;;;;16.50;3.10;;;18.30;99.90;;;;;;5016955;28;20198;-80
2022/07/22 05:31:58;;;;;;;9.68;2.67;;;18.60;99.90;;;;;;5039199;28;20648;-83
2022/07/22 05:34:23;;;;;;;14.73;3.10;;;18.80;99.90;;;;;;5037102;28;20282;-83
2022/07/22 05:36:52;;;;;;;8.18;2.65;;;18.80;99.90;;;;;;5036705;28;20282;-84
2022/07/22 05:39:18;;;;;;;10.55;2.85;;;18.80;99.90;;;;;;5019676;28;20152;-82
2022/07/22 05:41:43;;;;;;;9.70;3.08;;;18.80;99.90;;;;;;5036695;28;20279;-83
2022/07/22 05:44:09;;;;;;;7.68;3.33;;;18.70;99.90;;;;;;5019994;28;20172;-83
2022/07/22 05:46:35;;;;;;;7.30;3.05;;;19.00;99.90;;;;;;5036898;28;20710;-83
2022/07/22 05:49:00;;;;;;;8.18;3.22;;;19.40;99.90;;;;;;5036929;28;20168;-82
2022/07/22 05:51:26;;;;;;;10.43;3.55;;;19.70;99.90;;;;;;5042029;28;20191;-81
2022/07/22 05:53:51;;;;;;;17.83;3.55;;;19.80;99.90;;;;;;5041905;28;20172;-81
2022/07/22 05:56:20;;;;;;;11.55;3.35;;;20.00;99.90;;;;;;5041588;28;20204;-81
2022/07/22 05:58:46;;;;;;;17.75;4.50;;;20.20;99.90;;;;;;5043828;28;20171;-82
2022/07/22 06:01:12;;;;;;;15.15;3.53;;;19.90;99.90;;;;;;5025497;28;20722;-81
2022/07/22 06:03:38;;;;;;;12.60;4.45;;;19.90;99.90;;;;;;5024757;28;20172;-80
2022/07/22 06:06:08;;;;;;;15.50;4.32;;;19.80;99.90;;;;;;5023890;28;20164;-82
2022/07/22 06:08:34;;;;;;;14.68;4.38;;;20.00;99.90;;;;;;5006893;28;20193;-81
2022/07/22 06:10:59;;;;;;;15.60;5.35;;;20.00;99.90;;;;;;5023468;28;20199;-81
2022/07/22 06:13:25;;;;;;;11.35;4.30;;;19.80;99.90;;;;;;5040216;28;20622;-82
2022/07/22 06:15:51;;;;;;;14.77;5.10;;;19.80;99.90;;;;;;5041408;28;20684;-82
2022/07/22 06:18:17;;;;;;;14.32;4.75;;;19.70;99.90;;;;;;5022982;28;20222;-82
2022/07/22 06:20:43;;;;;;;15.98;5.10;;;19.90;99.90;;;;;;5039877;28;20200;-82
2022/07/22 06:23:09;;;;;;;16.25;4.57;;;20.00;99.90;;;;;;5022145;28;20187;-81
2022/07/22 06:25:36;;;;;;;19.63;5.18;;;20.00;99.90;;;;;;5041389;28;20250;-81
2022/07/22 06:28:01;;;;;;;18.80;4.50;;;20.10;99.90;;;;;;5024601;28;20228;-82
2022/07/22 06:30:27;;;;;;;13.68;5.93;;;20.20;99.90;;;;;;5019745;28;20282;-81
2022/07/22 06:32:53;;;;;;;14.45;4.88;;;20.00;99.90;;;;;;5034603;28;20197;-82
2022/07/22 06:35:19;;;;;;;27.50;5.45;;;19.90;99.90;;;;;;5033597;28;20273;-79
2022/07/22 06:37:45;;;;;;;13.50;5.40;;;19.90;99.90;;;;;;5033558;28;20680;-82
2022/07/22 06:40:11;;;;;;;11.57;5.50;;;20.00;99.90;;;;;;5015619;28;20187;-82
2022/07/22 06:42:37;;;;;;;13.82;4.25;;;20.30;99.90;;;;;;5033581;28;20191;-81
2022/07/22 06:45:03;;;;;;;6.60;4.55;;;20.30;99.90;;;;;;5015607;28;20317;-82
2022/07/22 06:47:30;;;;;;;12.35;3.97;;;20.20;99.90;;;;;;5034655;28;20549;-80
2022/07/22 06:49:56;;;;;;;9.90;4.47;;;20.40;99.90;;;;;;5035864;28;20180;-81
2022/07/22 06:52:21;;;;;;;10.02;4.13;;;20.20;99.90;;;;;;5036588;28;20175;-81
2022/07/22 06:54:47;;;;;;;15.95;4.78;;;20.50;99.90;;;;;;5035551;28;20214;-82
2022/07/22 06:57:13;;;;;;;6.75;4.18;;;20.50;99.90;;;;;;5034938;28;20175;-82
2022/07/22 06:59:38;;;;;;;8.07;3.85;;;20.60;99.90;;;;;;5035324;28;20175;-81
2022/07/22 07:02:04;;;;;;;7.57;3.28;;;20.50;99.90;;;;;;5048273;28;20168;-80
2022/07/22 07:04:29;;;;;;;7.60;3.10;;;20.70;99.90;;;;;;5034184;28;20279;-81
2022/07/22 07:06:55;;;;;;;4.85;2.20;;;20.90;99.90;;;;;;5053128;28;20176;-81
2022/07/22 07:09:21;;;;;;;7.32;3.55;;;20.70;99.90;;;;;;5052593;28;20160;-81
2022/07/22 07:11:46;;;;;;;5.65;3.15;;;20.90;99.90;;;;;;5036939;28;20231;-82
2022/07/22 07:14:12;;;;;;;5.25;3.28;;;20.80;99.90;;;;;;5053366;28;20214;-81
2022/07/22 07:16:38;;;;;;;9.15;3.42;;;20.80;99.90;;;;;;5023523;28;20176;-81
2022/07/22 07:19:03;;;;;;;9.77;2.90;;;20.90;99.90;;;;;;5033225;28;20620;-81
2022/07/22 07:21:30;;;;;;;3.85;3.10;;;20.80;99.90;;;;;;5015182;28;20330;-80
2022/07/22 07:23:55;;;;;;;3.50;2.10;;;21.00;99.90;;;;;;5015741;28;20580;-82
2022/07/22 07:26:21;;;;;;;2.80;2.20;;;21.20;99.90;;;;;;5036417;28;20208;-80
2022/07/22 07:28:47;;;;;;;3.58;2.33;;;21.30;99.90;;;;;;5042735;28;20187;-79
2022/07/22 07:31:12;;;;;;;3.70;2.33;;;21.30;99.90;;;;;;5042809;28;20210;-81
2022/07/22 07:33:38;;;;;;;7.60;2.67;;;21.30;99.90;;;;;;5015434;28;20187;-80
2022/07/22 07:36:04;;;;;;;4.90;2.80;;;21.20;99.90;;;;;;5035878;28;20214;-82
2022/07/22 07:38:30;;;;;;;6.32;2.65;;;21.00;99.90;;;;;;5019117;28;20255;-81
2022/07/22 07:40:56;;;;;;;5.18;2.75;;;20.80;99.90;;;;;;5036802;28;20654;-81
2022/07/22 07:43:22;;;;;;;3.83;2.47;;;20.80;99.90;;;;;;5036770;28;20179;-81
2022/07/22 07:45:48;;;;;;;8.90;3.35;;;20.90;99.90;;;;;;5037132;28;20171;-80
2022/07/22 07:48:14;;;;;;;10.60;2.58;;;21.10;99.90;;;;;;5039304;28;20156;-81
2022/07/22 07:50:39;;;;;;;5.43;2.75;;;21.30;99.90;;;;;;5037487;28;20664;-82
2022/07/22 07:53:05;;;;;;;6.32;2.85;;;21.50;99.90;;;;;;5020326;28;20186;-83
2022/07/22 07:55:32;;;;;;;4.22;2.97;;;21.40;99.90;;;;;;5039044;28;20278;-84
2022/07/22 07:57:57;;;;;;;7.53;3.45;;;21.50;99.90;;;;;;5028712;28;20217;-82
2022/07/22 08:00:30;;;;;;;5.07;2.58;;;21.90;99.90;;;;;;5025765;28;20195;-81
2022/07/22 08:02:55;;;;;;;6.40;3.22;;;22.20;99.90;;;;;;5037714;28;20195;-79
2022/07/22 08:05:21;;;;;;;5.03;2.70;;;21.90;99.90;;;;;;5036492;28;20164;-81
2022/07/22 08:07:48;;;;;;;4.88;2.53;;;21.80;99.90;;;;;;5037073;28;20186;-81
2022/07/22 08:10:14;;;;;;;7.03;2.38;;;21.70;99.90;;;;;;5020753;28;20655;-82
2022/07/22 08:12:40;;;;;;;8.32;2.70;;;21.50;99.90;;;;;;5020076;28;20203;-81
2022/07/22 08:15:07;;;;;;;7.50;3.03;;;21.50;99.90;;;;;;5036208;28;20246;-81
2022/07/22 08:17:33;;;;;;;7.85;2.85;;;21.60;99.90;;;;;;5035974;28;20570;-81
2022/07/22 08:19:59;;;;;;;3.30;1.98;;;21.50;99.90;;;;;;5036104;28;20191;-80
2022/07/22 08:22:24;;;;;;;6.82;2.72;;;21.70;99.90;;;;;;5035851;28;20160;-82
2022/07/22 08:24:50;;;;;;;8.23;2.90;;;21.30;99.90;;;;;;5018029;28;20194;-81
2022/07/22 08:27:16;;;;;;;13.45;2.47;;;21.40;99.90;;;;;;5035619;28;20165;-82
2022/07/22 08:29:41;;;;;;;3.00;1.95;;;21.80;99.90;;;;;;5035899;28;20723;-81
2022/07/22 08:32:07;;;;;;;7.22;2.40;;;22.10;99.90;;;;;;5035599;28;20168;-81
2022/07/22 08:34:33;;;;;;;5.35;2.88;;;22.40;99.90;;;;;;5017892;28;20286;-82
2022/07/22 08:36:59;;;;;;;4.13;2.50;;;22.50;99.90;;;;;;5035592;28;20640;-83
2022/07/22 08:39:24;;;;;;;4.78;2.40;;;22.50;99.90;;;;;;5035499;28;20222;-81
2022/07/22 08:41:50;;;;;;;13.52;2.63;;;22.80;99.90;;;;;;5035399;28;20191;-81
2022/07/22 08:44:16;;;;;;;7.57;3.03;;;22.70;99.90;;;;;;5035466;28;20680;-82
2022/07/22 08:46:45;;;;;;;9.25;2.42;;;22.90;99.90;;;;;;5033991;28;20172;-82
2022/07/22 08:49:14;;;;;;;3.35;2.47;;;23.00;99.90;;;;;;5035069;28;20176;-81
2022/07/22 08:51:39;;;;;;;5.55;2.88;;;22.80;99.90;;;;;;5035150;28;20210;-81
2022/07/22 08:54:05;;;;;;;8.75;2.83;;;23.10;99.90;;;;;;5035362;28;20632;-81
2022/07/22 08:56:31;;;;;;;14.85;2.30;;;23.50;99.90;;;;;;5017396;28;20176;-81
2022/07/22 08:58:56;;;;;;;5.78;2.53;;;23.40;99.90;;;;;;5035434;28;20246;-81
2022/07/22 09:01:22;;;;;;;3.40;2.65;;;23.30;99.90;;;;;;5035324;28;20640;-81
2022/07/22 09:03:55;;;;;;;10.65;3.33;;;22.70;99.90;;;;;;5034964;28;20656;-81
2022/07/22 09:06:22;;;;;;;6.38;2.92;;;22.80;99.90;;;;;;5035070;28;20156;-81
2022/07/22 09:09:03;;;;;;;9.65;3.05;;;23.20;99.90;;;;;;5035070;28;20176;-81
2022/07/22 09:11:30;;;;;;;7.35;2.65;;;23.30;99.90;;;;;;5035013;28;20187;-82
2022/07/22 09:13:58;;;;;;;4.43;2.67;;;23.20;99.90;;;;;;5034804;28;20176;-82
2022/07/22 09:16:45;;;;;;;6.60;3.20;;;23.30;99.90;;;;;;5016764;28;20214;-82
2022/07/22 09:19:11;;;;;;;8.70;2.40;;;23.50;99.90;;;;;;5035396;28;20294;-82
2022/07/22 09:21:41;;;;;;;8.35;2.50;;;23.70;99.90;;;;;;5034996;28;20199;-81
2022/07/22 09:24:07;;;;;;;6.95;2.33;;;24.00;99.90;;;;;;5040546;28;20513;-82
2022/07/22 09:26:38;;;;;;;3.97;2.10;;;23.70;99.90;;;;;;5018546;28;20172;-83
2022/07/22 09:29:06;;;;;;;3.25;2.30;;;23.80;99.90;;;;;;5036491;28;20160;-81
2022/07/22 09:31:35;;;;;;;6.90;2.33;;;24.10;99.90;;;;;;5016680;28;20195;-84
2022/07/22 09:34:01;;;;;;;9.73;2.25;;;23.90;99.90;;;;;;5016883;28;20167;-82
2022/07/22 09:36:27;;;;;;;3.17;1.90;;;24.00;99.90;;;;;;5016630;28;20235;-83
2022/07/22 09:38:54;;;;;;;7.47;2.92;;;24.00;99.90;;;;;;5034318;28;20168;-81
2022/07/22 09:41:20;;;;;;;3.53;2.30;;;24.40;99.90;;;;;;5016819;28;20556;-82
2022/07/22 09:43:46;;;;;;;6.03;2.38;;;24.60;99.90;;;;;;5034461;28;20164;-83
2022/07/22 09:46:12;;;;;;;4.70;2.08;;;24.70;99.90;;;;;;5016746;28;20221;-82
2022/07/22 09:48:39;;;;;;;2.67;2.10;;;24.40;99.90;;;;;;5034510;28;20163;-84
2022/07/22 09:51:05;;;;;;;2.83;2.10;;;24.60;99.90;;;;;;5037969;28;20183;-82
2022/07/22 09:53:32;;;;;;;2.60;1.90;;;24.50;99.90;;;;;;5019225;28;20175;-82
2022/07/22 09:56:01;;;;;;;3.55;2.05;;;24.90;99.90;;;;;;5035362;28;20294;-81
2022/07/22 09:58:27;;;;;;;5.30;2.45;;;25.10;99.90;;;;;;5039867;28;20641;-81
2022/07/22 10:00:54;;;;;;;10.85;2.20;;;25.10;99.90;;;;;;5042774;28;20184;-83
2022/07/22 10:03:32;;;;;;;2.67;2.20;;;24.70;99.90;;;;;;5036317;28;20183;-81
2022/07/22 10:05:59;;;;;;;4.30;2.25;;;24.80;99.90;;;;;;5023332;28;20172;-82
2022/07/22 10:08:30;;;;;;;7.18;2.72;;;24.90;99.90;;;;;;5020092;28;20174;-83
2022/07/22 10:11:00;;;;;;;15.88;3.15;;;24.90;99.90;;;;;;5023648;28;20198;-83
2022/07/22 10:13:27;;;;;;;3.58;2.40;;;24.80;99.90;;;;;;5016815;28;20160;-81
2022/07/22 10:15:54;;;;;;;4.75;2.70;;;24.60;99.90;;;;;;5034354;28;20234;-81
2022/07/22 10:18:21;;;;;;;6.30;2.35;;;24.70;99.90;;;;;;5034048;28;20195;-81
2022/07/22 10:20:46;;;;;;;2.35;2.15;;;24.30;99.90;;;;;;5016384;28;20245;-82
2022/07/22 10:23:13;;;;;;;3.05;1.95;;;24.50;99.90;;;;;;5033925;28;20640;-82
2022/07/22 10:25:54;;;;;;;4.68;2.80;;;24.30;99.90;;;;;;5033480;28;20682;-83
2022/07/22 10:28:34;;;;;;;4.15;2.30;;;24.50;99.90;;;;;;5041487;28;20206;-82
2022/07/22 10:31:23;;;;;;;8.25;2.70;;;24.70;99.90;;;;;;5037252;28;20203;-81
2022/07/22 10:33:52;;;;;;;5.20;2.30;;;24.10;99.90;;;;;;5035940;28;20640;-81
2022/07/22 10:36:33;;;;;;;11.18;2.30;;;24.10;99.90;;;;;;5019971;28;20239;-81
2022/07/22 10:39:13;;;;;;;4.25;1.85;;;23.90;99.90;;;;;;5040758;28;20175;-80
2022/07/22 10:41:44;;;;;;;2.38;2.00;;;24.30;99.90;;;;;;5034745;28;20190;-80
2022/07/22 10:44:11;;;;;;;5.22;2.10;;;24.80;99.90;;;;;;5034412;28;20168;-81
2022/07/22 10:46:58;;;;;;;3.00;1.90;;;25.30;99.90;;;;;;5033279;28;20187;-82
2022/07/22 10:49:25;;;;;;;3.67;2.55;;;25.60;99.90;;;;;;5015870;28;20318;-83
2022/07/22 10:52:09;;;;;;;4.45;2.80;;;25.70;99.90;;;;;;5032841;28;20278;-83
2022/07/22 10:55:15;;;;;;;8.02;2.50;;;25.20;99.90;;;;;;5032890;28;20560;-81
2022/07/22 10:57:41;;;;;;;3.65;3.08;;;24.90;99.90;;;;;;5022182;28;20176;-83
2022/07/22 11:00:07;;;;;;;4.70;2.25;;;24.80;99.90;;;;;;5017694;28;20279;-83
2022/07/22 11:02:36;;;;;;;2.50;2.30;;;24.80;99.90;;;;;;5015566;28;20172;-83
2022/07/22 11:05:03;;;;;;;4.18;3.13;;;24.70;99.90;;;;;;5014900;28;20160;-82
2022/07/22 11:07:31;;;;;;;3.75;2.88;;;24.90;99.90;;;;;;5032776;28;20175;-84
2022/07/22 11:10:08;;;;;;;2.97;2.28;;;24.90;99.90;;;;;;5014334;28;20188;-81
2022/07/22 11:12:34;;;;;;;3.95;2.35;;;24.90;99.90;;;;;;5032873;28;20194;-82
2022/07/22 11:15:06;;;;;;;8.88;3.35;;;24.80;99.90;;;;;;5032423;28;20231;-82
2022/07/22 11:17:34;;;;;;;12.63;4.65;;;24.70;99.90;;;;;;5032740;28;20552;-83
2022/07/22 11:20:01;;;;;;;7.25;3.58;;;24.50;99.90;;;;;;5032501;28;20192;-82
2022/07/22 11:22:27;;;;;;;4.38;3.13;;;24.10;99.90;;;;;;5034379;28;20616;-82
2022/07/22 11:24:53;;;;;;;5.93;3.63;;;24.10;99.90;;;;;;5033357;28;20171;-82
2022/07/22 11:27:21;;;;;;;4.90;2.75;;;24.00;99.90;;;;;;5033547;28;20164;-83
2022/07/22 11:29:52;;;;;;;3.58;2.55;;;24.20;99.90;;;;;;5019125;28;20187;-82
2022/07/22 11:32:20;;;;;;;11.35;3.50;;;24.40;99.90;;;;;;5035145;28;20647;-81
2022/07/22 11:34:47;;;;;;;8.77;3.03;;;24.60;99.90;;;;;;5034462;28;20739;-85
2022/07/22 11:37:16;;;;;;;6.15;2.58;;;24.70;99.90;;;;;;5034259;28;20266;-82
2022/07/22 11:39:42;;;;;;;5.68;2.38;;;24.80;99.90;;;;;;5034375;28;20191;-82
2022/07/22 11:42:08;;;;;;;9.55;2.47;;;24.50;99.90;;;;;;5032714;28;20624;-82
2022/07/22 11:44:36;;;;;;;6.18;2.90;;;24.50;99.90;;;;;;5033225;28;20183;-81
2022/07/22 11:47:03;;;;;;;4.40;2.60;;;24.80;99.90;;;;;;5033264;28;20194;-82
2022/07/22 11:49:35;;;;;;;7.95;2.35;;;24.80;99.90;;;;;;5033003;28;20302;-82
2022/07/22 11:52:02;;;;;;;4.18;2.60;;;24.90;99.90;;;;;;5032571;28;20235;-82
2022/07/22 11:54:28;;;;;;;7.50;2.33;;;25.20;99.90;;;;;;5032521;28;20171;-82
2022/07/22 11:56:54;;;;;;;6.97;2.47;;;25.20;99.90;;;;;;5021348;28;20180;-80
2022/07/22 11:59:20;;;;;;;4.18;3.03;;;25.20;99.90;;;;;;5035974;28;20157;-84
2022/07/22 12:01:48;;;;;;;3.78;2.65;;;25.40;99.90;;;;;;5033467;28;20172;-83
2022/07/22 12:04:21;;;;;;;6.32;2.78;;;25.10;99.90;;;;;;5032944;28;20160;-83
2022/07/22 12:06:47;;;;;;;10.07;3.28;;;24.90;99.90;;;;;;5016342;28;20319;-83
2022/07/22 12:09:15;;;;;;;3.72;2.80;;;24.90;99.90;;;;;;5034783;28;20225;-84
2022/07/22 12:11:44;;;;;;;9.85;2.30;;;25.20;99.90;;;;;;5016098;28;20176;-84
2022/07/22 12:14:17;;;;;;;7.63;2.95;;;25.80;99.90;;;;;;5032384;28;20165;-82
2022/07/22 12:16:53;;;;;;;11.75;3.88;;;25.70;99.90;;;;;;5032298;28;20226;-83
2022/07/22 12:19:21;;;;;;;3.45;2.95;;;25.50;99.90;;;;;;5020042;28;20203;-80
2022/07/22 12:21:55;;;;;;;5.82;2.80;;;25.40;99.90;;;;;;5040307;28;20164;-82
2022/07/22 12:24:38;;;;;;;7.20;2.55;;;25.30;99.90;;;;;;5026592;28;20520;-82
2022/07/22 12:27:09;;;;;;;4.18;2.65;;;25.70;99.90;;;;;;5044451;28;20163;-81
2022/07/22 12:29:38;;;;;;;3.60;2.63;;;26.10;99.90;;;;;;5025603;28;20676;-80
2022/07/22 12:32:06;;;;;;;11.80;3.00;;;26.30;99.90;;;;;;5025377;28;20629;-82
2022/07/22 12:34:40;;;;;;;5.97;2.97;;;26.50;99.90;;;;;;5018221;28;20168;-81
2022/07/22 12:37:18;;;;;;;4.22;2.20;;;25.80;99.90;;;;;;5038812;28;20338;-81
2022/07/22 12:40:04;;;;;;;5.35;2.85;;;25.40;99.90;;;;;;5029398;28;20736;-81
2022/07/22 12:42:35;;;;;;;2.88;2.67;;;25.20;99.90;;;;;;5029719;28;20210;-81